createdAt,value
2023-01-21T00:00:52.425Z,18.33
2023-01-21T00:03:27.652Z,17.03
2023-01-21T00:05:58.404Z,17.37
2023-01-21T00:08:36.604Z,18.00
2023-01-21T00:11:13.851Z,17.53
2023-01-21T00:13:49.550Z,19.13
2023-01-21T00:16:18.138Z,18.53
2023-01-21T00:18:54.690Z,18.27
2023-01-21T00:21:24.229Z,18.50
2023-01-21T00:24:00.543Z,18.97
2023-01-21T00:26:28.975Z,20.67
2023-01-21T00:29:03.841Z,19.27
2023-01-21T00:31:32.791Z,20.30
2023-01-21T00:34:07.534Z,19.87
2023-01-21T00:36:36.248Z,19.70
2023-01-21T00:39:12.579Z,20.23
2023-01-21T00:41:41.059Z,19.67
2023-01-21T00:44:15.909Z,21.10
2023-01-21T00:46:44.826Z,20.17
2023-01-21T00:49:19.718Z,20.57
2023-01-21T00:52:01.585Z,21.13
2023-01-21T00:54:32.710Z,22.00
2023-01-21T00:57:07.720Z,21.07
2023-01-21T00:59:36.257Z,22.13
2023-01-21T01:02:11.615Z,23.10
2023-01-21T01:04:40.108Z,22.87
2023-01-21T01:07:15.635Z,23.13
2023-01-21T01:09:46.037Z,23.40
2023-01-21T01:12:20.733Z,22.00
2023-01-21T01:14:49.275Z,22.83
2023-01-21T01:17:24.976Z,22.20
2023-01-21T01:19:53.867Z,22.20
2023-01-21T01:22:29.510Z,20.50
2023-01-21T01:24:59.651Z,22.97
2023-01-21T01:27:34.628Z,22.47
2023-01-21T01:30:03.289Z,21.67
2023-01-21T01:32:38.638Z,22.10
2023-01-21T01:35:08.302Z,21.87
2023-01-21T01:37:43.648Z,22.07
2023-01-21T01:40:15.851Z,21.93
2023-01-21T01:42:50.734Z,19.37
2023-01-21T01:45:21.814Z,22.50
2023-01-21T01:48:04.639Z,21.30
2023-01-21T01:50:44.567Z,22.87
2023-01-21T01:53:21.758Z,21.80
2023-01-21T01:55:52.191Z,21.57
2023-01-21T01:58:28.947Z,21.40
2023-01-21T02:00:57.974Z,20.43
2023-01-21T02:03:57.643Z,22.37
2023-01-21T02:06:27.780Z,21.67
2023-01-21T02:09:03.801Z,22.87
2023-01-21T02:11:33.937Z,22.63
2023-01-21T02:14:08.767Z,23.37
2023-01-21T02:17:13.282Z,22.57
2023-01-21T02:20:23.777Z,21.17
2023-01-21T02:23:00.806Z,23.20
2023-01-21T02:26:08.666Z,22.70
2023-01-21T02:29:10.610Z,23.00
2023-01-21T02:32:15.679Z,24.03
2023-01-21T02:34:53.936Z,23.60
2023-01-21T02:37:37.759Z,23.90
2023-01-21T02:40:15.096Z,21.50
2023-01-21T02:42:54.819Z,25.03
2023-01-21T02:45:28.695Z,23.80
2023-01-21T02:48:12.673Z,25.67
2023-01-21T02:50:57.853Z,24.10
2023-01-21T02:53:28.159Z,25.87
2023-01-21T02:56:05.810Z,26.47
2023-01-21T02:58:36.629Z,25.90
2023-01-21T03:01:21.704Z,26.17
2023-01-21T03:04:23.911Z,27.93
2023-01-21T03:07:11.720Z,27.63
2023-01-21T03:09:40.626Z,28.43
2023-01-21T03:12:34.814Z,27.63
2023-01-21T03:15:23.952Z,29.63
2023-01-21T03:18:04.367Z,29.67
2023-01-21T03:20:37.381Z,25.90
2023-01-21T03:23:18.746Z,27.53
2023-01-21T03:26:03.317Z,25.53
2023-01-21T03:28:51.700Z,24.73
2023-01-21T03:31:25.343Z,25.03
2023-01-21T03:34:03.726Z,14.47
2023-01-21T03:36:39.427Z,25.80
2023-01-21T03:39:22.839Z,23.80
2023-01-21T03:41:51.405Z,24.10
2023-01-21T03:44:26.695Z,24.07
2023-01-21T03:47:04.758Z,24.17
2023-01-21T03:49:43.764Z,24.47
2023-01-21T03:52:15.441Z,25.27
2023-01-21T03:54:54.953Z,24.67
2023-01-21T03:57:23.524Z,25.30
2023-01-21T03:59:58.978Z,26.33
2023-01-21T04:02:27.727Z,24.80
2023-01-21T04:05:02.886Z,25.33
2023-01-21T04:07:31.609Z,25.80
2023-01-21T04:10:07.776Z,25.17
2023-01-21T04:12:36.365Z,25.60
2023-01-21T04:15:11.849Z,26.43
2023-01-21T04:17:40.350Z,25.53
2023-01-21T04:20:17.955Z,27.37
2023-01-21T04:22:46.808Z,24.47
2023-01-21T04:25:23.749Z,24.93
2023-01-21T04:27:52.630Z,26.00
2023-01-21T04:30:28.777Z,26.87
2023-01-21T04:32:58.336Z,26.70
2023-01-21T04:35:33.894Z,25.47
2023-01-21T04:38:02.696Z,25.77
2023-01-21T04:40:38.720Z,25.53
2023-01-21T04:43:07.149Z,26.73
2023-01-21T04:45:42.928Z,27.47
2023-01-21T04:48:11.524Z,27.13
2023-01-21T04:50:55.972Z,27.87
2023-01-21T04:53:24.373Z,26.80
2023-01-21T04:56:01.736Z,25.93
2023-01-21T04:58:30.718Z,27.87
2023-01-21T05:01:05.833Z,28.03
2023-01-21T05:03:35.428Z,27.77
2023-01-21T05:06:10.037Z,28.47
2023-01-21T05:08:38.584Z,27.07
2023-01-21T05:11:18.814Z,24.90
2023-01-21T05:13:47.967Z,27.77
2023-01-21T05:16:24.048Z,18.73
2023-01-21T05:18:52.860Z,26.70
2023-01-21T05:21:29.216Z,27.70
2023-01-21T05:23:57.776Z,28.00
2023-01-21T05:26:34.762Z,28.23
2023-01-21T05:29:02.979Z,28.90
2023-01-21T05:31:38.010Z,28.73
2023-01-21T05:34:12.940Z,25.40
2023-01-21T05:36:41.526Z,30.10
2023-01-21T05:39:16.757Z,29.47
2023-01-21T05:41:46.978Z,29.07
2023-01-21T05:44:21.828Z,29.13
2023-01-21T05:46:50.278Z,29.40
2023-01-21T05:49:31.771Z,30.90
2023-01-21T05:52:07.625Z,29.57
2023-01-21T05:54:59.987Z,29.90
2023-01-21T05:57:31.501Z,31.07
2023-01-21T06:00:06.985Z,30.47
2023-01-21T06:02:35.782Z,30.67
2023-01-21T06:05:10.792Z,22.50
2023-01-21T06:07:39.326Z,31.30
2023-01-21T06:10:16.123Z,31.03
2023-01-21T06:12:46.739Z,29.90
2023-01-21T06:15:22.863Z,31.00
2023-01-21T06:17:51.439Z,31.10
2023-01-21T06:20:26.994Z,30.70
2023-01-21T06:22:55.463Z,30.37
2023-01-21T06:25:31.018Z,30.63
2023-01-21T06:28:01.481Z,30.90
2023-01-21T06:30:37.059Z,31.87
2023-01-21T06:33:05.879Z,31.47
2023-01-21T06:35:42.911Z,31.57
2023-01-21T06:38:11.255Z,30.87
2023-01-21T06:40:47.871Z,30.17
2023-01-21T06:43:17.706Z,32.00
2023-01-21T06:45:53.990Z,30.20
2023-01-21T06:48:23.582Z,29.70
2023-01-21T06:51:08.894Z,29.37
2023-01-21T06:53:37.285Z,30.80
2023-01-21T06:56:13.140Z,30.20
2023-01-21T06:58:43.118Z,29.70
2023-01-21T07:01:17.923Z,30.10
2023-01-21T07:03:46.367Z,30.53
2023-01-21T07:06:21.089Z,30.47
2023-01-21T07:08:49.604Z,31.37
2023-01-21T07:11:26.071Z,31.57
2023-01-21T07:13:56.075Z,30.87
2023-01-21T07:16:31.581Z,28.80
2023-01-21T07:19:00.512Z,29.80
2023-01-21T07:21:35.976Z,30.83
2023-01-21T07:24:04.755Z,30.10
2023-01-21T07:26:42.871Z,29.20
2023-01-21T07:29:12.945Z,29.27
2023-01-21T07:31:48.085Z,28.77
2023-01-21T07:34:16.834Z,30.87
2023-01-21T07:36:52.122Z,28.93
2023-01-21T07:39:20.553Z,31.13
2023-01-21T07:41:55.940Z,30.63
2023-01-21T07:44:26.039Z,31.70
2023-01-21T07:47:01.146Z,30.27
2023-01-21T07:49:36.433Z,31.07
2023-01-21T07:52:17.948Z,31.50
2023-01-21T07:54:46.812Z,32.13
2023-01-21T07:57:23.216Z,31.13
2023-01-21T07:59:53.536Z,31.77
2023-01-21T08:02:29.032Z,32.83
2023-01-21T08:04:57.674Z,32.47
2023-01-21T08:07:33.128Z,32.90
2023-01-21T08:10:01.978Z,33.33
2023-01-21T08:12:36.898Z,32.40
2023-01-21T08:15:08.842Z,31.00
2023-01-21T08:17:46.913Z,31.80
2023-01-21T08:20:15.792Z,34.23
2023-01-21T08:22:50.958Z,33.40
2023-01-21T08:25:19.804Z,31.93
2023-01-21T08:27:54.980Z,31.80
2023-01-21T08:30:25.371Z,30.90
2023-01-21T08:33:01.107Z,32.70
2023-01-21T08:35:36.112Z,32.50
2023-01-21T08:38:11.685Z,33.60
2023-01-21T08:40:46.903Z,33.43
2023-01-21T08:43:15.384Z,32.97
2023-01-21T08:45:52.151Z,33.13
2023-01-21T08:48:20.794Z,33.63
2023-01-21T08:51:02.013Z,32.63
2023-01-21T08:53:37.347Z,33.23
2023-01-21T08:56:15.000Z,31.97
2023-01-21T08:58:43.314Z,31.17
2023-01-21T09:01:24.008Z,31.73
2023-01-21T09:03:56.750Z,31.50
2023-01-21T09:06:33.092Z,30.97
2023-01-21T09:09:01.933Z,31.40
2023-01-21T09:11:38.095Z,30.77
2023-01-21T09:14:08.150Z,29.17
2023-01-21T09:16:45.208Z,32.00
2023-01-21T09:19:13.466Z,31.47
2023-01-21T09:21:49.135Z,31.33
2023-01-21T09:24:19.461Z,31.77
2023-01-21T09:26:54.979Z,32.07
2023-01-21T09:29:23.743Z,28.73
2023-01-21T09:32:00.215Z,29.90
2023-01-21T09:34:32.938Z,31.03
2023-01-21T09:37:10.039Z,31.50
2023-01-21T09:39:38.549Z,32.80
2023-01-21T09:42:13.995Z,32.60
2023-01-21T09:44:47.378Z,32.10
2023-01-21T09:47:30.167Z,31.90
2023-01-21T09:50:09.129Z,31.97
2023-01-21T09:52:53.029Z,30.83
2023-01-21T09:55:27.113Z,31.03
2023-01-21T09:58:21.992Z,31.70
2023-01-21T10:00:56.714Z,30.50
2023-01-21T10:03:41.306Z,30.53
2023-01-21T10:06:20.633Z,32.57
2023-01-21T10:09:19.184Z,30.93
2023-01-21T10:12:04.302Z,31.23
2023-01-21T10:15:04.350Z,31.20
2023-01-21T10:17:44.914Z,33.00
2023-01-21T10:20:35.699Z,31.23
2023-01-21T10:23:16.657Z,32.83
2023-01-21T10:25:55.362Z,32.60
2023-01-21T10:28:27.040Z,31.97
2023-01-21T10:31:05.075Z,33.03
2023-01-21T10:33:35.561Z,32.60
2023-01-21T10:36:49.039Z,33.70
2023-01-21T10:39:30.767Z,36.90
2023-01-21T10:42:28.002Z,35.40
2023-01-21T10:45:11.048Z,35.70
2023-01-21T10:47:47.030Z,36.43
2023-01-21T10:50:50.096Z,35.60
2023-01-21T10:53:25.662Z,36.97
2023-01-21T10:56:14.215Z,36.33
2023-01-21T10:58:49.637Z,37.00
2023-01-21T11:01:29.342Z,37.20
2023-01-21T11:04:02.185Z,38.50
2023-01-21T11:06:40.084Z,35.67
2023-01-21T11:09:15.758Z,35.33
2023-01-21T11:11:53.220Z,40.03
2023-01-21T11:14:24.745Z,39.07
2023-01-21T11:17:01.202Z,40.17
2023-01-21T11:19:31.842Z,40.40
2023-01-21T11:22:11.423Z,39.03
2023-01-21T11:24:45.071Z,32.83
2023-01-21T11:27:36.156Z,41.83
2023-01-21T11:30:16.634Z,39.67
2023-01-21T11:32:56.238Z,38.97
2023-01-21T11:35:25.330Z,40.40
2023-01-21T11:38:00.250Z,42.50
2023-01-21T11:40:29.048Z,37.77
2023-01-21T11:43:06.500Z,35.07
2023-01-21T11:45:37.034Z,32.73
2023-01-21T11:48:24.285Z,35.57
2023-01-21T11:51:23.135Z,33.83
2023-01-21T11:54:16.126Z,33.97
2023-01-21T11:56:56.564Z,35.43
2023-01-21T11:59:40.261Z,35.67
2023-01-21T12:02:14.600Z,37.53
2023-01-21T12:04:53.273Z,34.67
2023-01-21T12:07:23.995Z,35.10
2023-01-21T12:10:03.148Z,32.87
2023-01-21T12:12:48.251Z,33.83
2023-01-21T12:15:38.268Z,32.83
2023-01-21T12:18:17.890Z,34.80
2023-01-21T12:21:00.168Z,35.37
2023-01-21T12:23:52.732Z,34.10
2023-01-21T12:26:43.169Z,35.30
2023-01-21T12:29:50.300Z,36.57
2023-01-21T12:32:25.254Z,36.33
2023-01-21T12:35:05.269Z,35.97
2023-01-21T12:37:41.329Z,33.47
2023-01-21T12:40:25.291Z,32.90
2023-01-21T12:42:57.253Z,32.10
2023-01-21T12:45:37.287Z,33.33
2023-01-21T12:48:15.316Z,30.03
2023-01-21T12:51:01.234Z,33.67
2023-01-21T12:53:37.505Z,33.63
2023-01-21T12:56:30.196Z,31.57
2023-01-21T12:59:02.208Z,32.37
2023-01-21T13:01:48.329Z,31.60
2023-01-21T13:04:34.784Z,28.80
2023-01-21T13:07:15.313Z,29.73
2023-01-21T13:09:50.937Z,32.03
2023-01-21T13:12:28.215Z,29.87
2023-01-21T13:15:03.297Z,30.33
2023-01-21T13:17:41.207Z,30.03
2023-01-21T13:20:21.237Z,30.40
2023-01-21T13:23:07.226Z,31.37
2023-01-21T13:25:44.241Z,28.47
2023-01-21T13:28:28.399Z,30.47
2023-01-21T13:31:03.152Z,30.57
2023-01-21T13:33:49.347Z,30.07
2023-01-21T13:36:53.252Z,29.43
2023-01-21T13:39:36.351Z,28.67
2023-01-21T13:42:26.588Z,30.90
2023-01-21T13:45:12.341Z,30.47
2023-01-21T13:48:07.865Z,30.63
2023-01-21T13:51:25.586Z,26.63
2023-01-21T13:54:21.036Z,28.77
2023-01-21T13:57:12.359Z,28.30
2023-01-21T13:59:47.463Z,28.80
2023-01-21T14:02:26.447Z,28.83
2023-01-21T14:05:00.975Z,27.77
2023-01-21T14:07:40.209Z,28.10
2023-01-21T14:10:15.786Z,31.50
2023-01-21T14:13:31.207Z,34.10
2023-01-21T14:16:19.404Z,29.47
2023-01-21T14:19:09.226Z,28.30
2023-01-21T14:22:02.472Z,28.23
2023-01-21T14:25:02.386Z,29.00
2023-01-21T14:27:53.207Z,28.43
2023-01-21T14:30:33.401Z,29.37
2023-01-21T14:33:09.118Z,28.80
2023-01-21T14:35:51.388Z,30.17
2023-01-21T14:38:27.281Z,28.77
2023-01-21T14:41:15.249Z,29.10
2023-01-21T14:43:53.588Z,28.40
2023-01-21T14:46:39.290Z,27.73
2023-01-21T14:49:09.372Z,27.83
2023-01-21T14:51:56.390Z,27.07
2023-01-21T14:54:35.255Z,28.13
2023-01-21T14:57:18.737Z,26.77
2023-01-21T14:59:50.571Z,28.70
2023-01-21T15:02:37.469Z,27.97
2023-01-21T15:05:19.080Z,29.10
2023-01-21T15:07:57.500Z,27.07
2023-01-21T15:10:32.144Z,26.50
2023-01-21T15:13:11.848Z,29.53
2023-01-21T15:16:08.521Z,28.77
2023-01-21T15:18:47.303Z,29.17
2023-01-21T15:21:36.735Z,26.37
2023-01-21T15:24:31.522Z,27.23
2023-01-21T15:27:18.451Z,27.67
2023-01-21T15:30:15.573Z,29.20
2023-01-21T15:32:51.372Z,30.57
2023-01-21T15:35:32.500Z,28.40
2023-01-21T15:38:04.151Z,28.93
2023-01-21T15:40:47.498Z,29.10
2023-01-21T15:43:21.769Z,29.23
2023-01-21T15:46:03.398Z,29.67
2023-01-21T15:48:56.187Z,28.87
2023-01-21T15:51:45.362Z,26.50
2023-01-21T15:54:25.613Z,29.20
2023-01-21T15:57:23.631Z,25.23
2023-01-21T16:00:05.942Z,28.23
2023-01-21T16:02:45.484Z,28.47
2023-01-21T16:05:26.661Z,29.70
2023-01-21T16:08:12.371Z,26.23
2023-01-21T16:10:52.406Z,28.53
2023-01-21T16:13:37.977Z,28.77
2023-01-21T16:16:23.587Z,29.53
2023-01-21T16:19:02.340Z,20.33
2023-01-21T16:21:35.615Z,30.30
2023-01-21T16:24:14.483Z,30.00
2023-01-21T16:26:43.030Z,29.07
2023-01-21T16:29:19.423Z,30.77
2023-01-21T16:31:52.964Z,31.67
2023-01-21T16:34:48.532Z,32.37
2023-01-21T16:37:20.274Z,32.07
2023-01-21T16:39:56.445Z,35.23
2023-01-21T16:42:28.265Z,32.03
2023-01-21T16:45:03.327Z,30.43
2023-01-21T16:47:35.603Z,31.30
2023-01-21T16:50:12.495Z,30.57
2023-01-21T16:52:50.272Z,29.67
2023-01-21T16:55:29.474Z,29.07
2023-01-21T16:57:59.581Z,30.03
2023-01-21T17:00:37.395Z,29.77
2023-01-21T17:03:07.408Z,30.23
2023-01-21T17:05:45.291Z,29.67
2023-01-21T17:08:17.215Z,30.00
2023-01-21T17:11:04.371Z,28.43
2023-01-21T17:13:33.380Z,28.77
2023-01-21T17:16:10.445Z,30.33
2023-01-21T17:18:41.737Z,30.00
2023-01-21T17:21:18.403Z,29.47
2023-01-21T17:23:51.912Z,30.40
2023-01-21T17:26:31.509Z,29.47
2023-01-21T17:29:17.439Z,30.80
2023-01-21T17:31:46.963Z,29.47
2023-01-21T17:34:30.418Z,31.63
2023-01-21T17:37:00.772Z,31.63
2023-01-21T17:40:20.428Z,31.33
2023-01-21T17:42:50.181Z,31.37
2023-01-21T17:45:29.431Z,30.17
2023-01-21T17:48:14.965Z,29.43
2023-01-21T17:50:54.430Z,30.33
2023-01-21T17:53:46.204Z,29.63
2023-01-21T17:56:31.011Z,29.80
2023-01-21T17:59:09.557Z,28.50
2023-01-21T18:01:38.483Z,26.87
2023-01-21T18:04:13.523Z,30.00
2023-01-21T18:06:42.338Z,30.73
2023-01-21T18:09:28.592Z,30.17
2023-01-21T18:11:59.223Z,30.43
2023-01-21T18:14:35.411Z,25.17
2023-01-21T18:17:04.641Z,31.57
2023-01-21T18:19:41.441Z,30.73
2023-01-21T18:22:25.337Z,30.37
2023-01-21T18:25:00.416Z,31.43
2023-01-21T18:27:29.202Z,31.53
2023-01-21T18:30:08.537Z,31.13
2023-01-21T18:32:38.172Z,30.50
2023-01-21T18:35:14.429Z,29.50
2023-01-21T18:37:43.790Z,30.33
2023-01-21T18:40:24.489Z,30.50
2023-01-21T18:43:02.595Z,30.87
2023-01-21T18:45:33.190Z,31.23
2023-01-21T18:48:08.603Z,30.87
2023-01-21T18:50:57.650Z,30.37
2023-01-21T18:53:33.586Z,38.27
2023-01-21T18:56:02.384Z,30.03
2023-01-21T18:58:37.477Z,32.93
2023-01-21T19:01:22.091Z,31.20
2023-01-21T19:04:01.463Z,37.80
2023-01-21T19:06:30.523Z,30.23
2023-01-21T19:09:05.509Z,30.40
2023-01-21T19:11:34.189Z,32.67
2023-01-21T19:14:10.775Z,31.97
2023-01-21T19:16:42.125Z,60.90
2023-01-21T19:19:21.464Z,34.43
2023-01-21T19:21:50.132Z,34.70
2023-01-21T19:24:24.498Z,29.37
2023-01-21T19:27:00.876Z,30.07
2023-01-21T19:29:35.658Z,34.87
2023-01-21T19:32:05.670Z,30.30
2023-01-21T19:34:41.511Z,29.93
2023-01-21T19:37:13.673Z,29.53
2023-01-21T19:39:48.631Z,31.60
2023-01-21T19:42:18.109Z,31.00
2023-01-21T19:44:53.531Z,28.00
2023-01-21T19:47:29.750Z,29.00
2023-01-21T19:50:05.645Z,29.53
2023-01-21T19:52:47.977Z,29.90
2023-01-21T19:55:23.672Z,31.80
2023-01-21T19:57:57.406Z,27.67
2023-01-21T20:00:34.709Z,28.97
2023-01-21T20:03:05.036Z,29.43
2023-01-21T20:05:40.536Z,29.67
2023-01-21T20:08:13.184Z,30.97
2023-01-21T20:10:48.529Z,31.07
2023-01-21T20:13:17.896Z,29.10
2023-01-21T20:15:54.598Z,32.57
2023-01-21T20:18:26.878Z,32.83
2023-01-21T20:21:02.535Z,32.97
2023-01-21T20:23:32.755Z,33.47
2023-01-21T20:26:08.517Z,35.83
2023-01-21T20:28:39.976Z,29.00
2023-01-21T20:31:18.647Z,25.60
2023-01-21T20:33:49.682Z,33.57
2023-01-21T20:36:27.567Z,34.13
2023-01-21T20:38:56.903Z,33.33
2023-01-21T20:41:31.554Z,34.43
2023-01-21T20:44:03.840Z,36.50
2023-01-21T20:46:39.542Z,34.73
2023-01-21T20:49:12.811Z,31.60
2023-01-21T20:51:47.593Z,22.97
2023-01-21T20:54:24.906Z,35.23
2023-01-21T20:56:59.685Z,31.43
2023-01-21T20:59:30.671Z,28.90
2023-01-21T21:02:05.751Z,34.27
2023-01-21T21:04:35.834Z,33.57
2023-01-21T21:07:10.618Z,32.80
2023-01-21T21:09:39.907Z,32.73
2023-01-21T21:12:17.653Z,32.77
2023-01-21T21:14:45.895Z,31.30
2023-01-21T21:17:20.721Z,32.23
2023-01-21T21:19:50.741Z,33.93
2023-01-21T21:22:25.704Z,33.27
2023-01-21T21:24:54.921Z,31.83
2023-01-21T21:27:29.602Z,32.13
2023-01-21T21:30:00.204Z,26.70
2023-01-21T21:32:35.855Z,30.47
2023-01-21T21:35:07.106Z,30.10
2023-01-21T21:37:42.618Z,24.30
2023-01-21T21:40:12.414Z,29.47
2023-01-21T21:43:09.651Z,27.00
2023-01-21T21:45:41.008Z,29.80
2023-01-21T21:48:39.871Z,28.90
2023-01-21T21:51:28.151Z,27.57
2023-01-21T21:54:09.612Z,26.70
2023-01-21T21:56:45.800Z,29.33
2023-01-21T21:59:15.817Z,27.47
2023-01-21T22:01:51.621Z,27.63
2023-01-21T22:04:21.679Z,27.50
2023-01-21T22:06:58.599Z,26.43
2023-01-21T22:09:27.086Z,25.63
2023-01-21T22:12:02.590Z,26.80
2023-01-21T22:14:30.870Z,26.27
2023-01-21T22:17:07.753Z,15.77
2023-01-21T22:19:37.779Z,25.00
2023-01-21T22:22:14.749Z,24.90
2023-01-21T22:24:44.835Z,26.17
2023-01-21T22:27:20.655Z,23.87
2023-01-21T22:29:49.454Z,25.03
2023-01-21T22:32:24.774Z,23.70
2023-01-21T22:34:53.315Z,22.57
2023-01-21T22:37:30.657Z,22.87
2023-01-21T22:39:59.614Z,23.33
2023-01-21T22:42:34.768Z,23.93
2023-01-21T22:45:03.341Z,23.47
2023-01-21T22:47:38.577Z,24.07
2023-01-21T22:50:08.311Z,24.60
2023-01-21T22:52:51.779Z,25.37
2023-01-21T22:55:26.668Z,25.40
2023-01-21T22:58:02.606Z,24.90
2023-01-21T23:00:38.041Z,26.80
2023-01-21T23:03:15.708Z,26.00
2023-01-21T23:05:44.492Z,27.30
2023-01-21T23:08:22.121Z,27.50
2023-01-21T23:10:50.348Z,27.40
2023-01-21T23:13:25.776Z,24.80
2023-01-21T23:15:54.463Z,17.23
2023-01-21T23:18:29.636Z,23.97
2023-01-21T23:20:58.667Z,22.07
2023-01-21T23:23:35.817Z,24.83
2023-01-21T23:26:05.114Z,24.20
2023-01-21T23:28:41.822Z,23.53
2023-01-21T23:31:14.296Z,22.17
2023-01-21T23:33:49.765Z,15.93
2023-01-21T23:36:18.582Z,24.33
2023-01-21T23:38:55.702Z,24.27
2023-01-21T23:41:24.219Z,25.53
2023-01-21T23:43:59.887Z,23.67
2023-01-21T23:46:28.909Z,20.13
2023-01-21T23:49:03.865Z,23.63
2023-01-21T23:51:40.113Z,24.37
2023-01-21T23:54:19.037Z,24.53
2023-01-21T23:56:48.419Z,25.40
2023-01-21T23:59:23.703Z,25.63
